createdAt,value
2018-09-12T00:02:28.673Z,15.70
2018-09-12T00:04:57.941Z,15.70
2018-09-12T00:07:26.836Z,15.70
2018-09-12T00:09:55.715Z,15.70
2018-09-12T00:12:24.704Z,15.70
2018-09-12T00:14:53.887Z,15.70
2018-09-12T00:17:22.783Z,15.70
2018-09-12T00:19:51.559Z,15.60
2018-09-12T00:22:21.236Z,15.60
2018-09-12T00:24:50.509Z,15.60
2018-09-12T00:27:19.363Z,15.60
2018-09-12T00:29:48.215Z,15.60
2018-09-12T00:32:17.106Z,15.60
2018-09-12T00:34:45.976Z,15.50
2018-09-12T00:37:15.026Z,15.50
2018-09-12T00:39:43.963Z,15.50
2018-09-12T00:42:12.797Z,15.50
2018-09-12T00:44:42.067Z,15.50
2018-09-12T00:47:11.062Z,15.50
2018-09-12T00:49:39.935Z,15.40
2018-09-12T00:52:08.784Z,15.40
2018-09-12T00:54:38.109Z,15.30
2018-09-12T00:57:07.088Z,15.40
2018-09-12T00:59:36.050Z,15.30
2018-09-12T01:02:05.016Z,15.30
2018-09-12T01:04:33.874Z,15.30
2018-09-12T01:07:02.713Z,15.30
2018-09-12T01:09:31.681Z,15.20
2018-09-12T01:12:00.740Z,15.20
2018-09-12T01:14:32.008Z,15.20
2018-09-12T01:17:01.335Z,15.20
2018-09-12T01:19:30.754Z,15.20
2018-09-12T01:21:59.862Z,15.20
2018-09-12T01:24:28.800Z,15.10
2018-09-12T01:26:57.774Z,15.10
2018-09-12T01:29:28.191Z,15.10
2018-09-12T01:31:57.207Z,15.10
2018-09-12T01:34:26.154Z,15.10
2018-09-12T01:36:55.108Z,15.10
2018-09-12T01:39:23.926Z,15.10
2018-09-12T01:41:52.872Z,15.00
2018-09-12T01:44:21.746Z,15.00
2018-09-12T01:46:50.768Z,15.00
2018-09-12T01:49:20.230Z,15.00
2018-09-12T01:51:50.056Z,15.00
2018-09-12T01:54:19.339Z,14.90
2018-09-12T01:56:48.510Z,15.00
2018-09-12T01:59:17.352Z,14.90
2018-09-12T02:01:46.760Z,14.90
2018-09-12T02:04:15.853Z,14.90
2018-09-12T02:06:44.898Z,14.90
2018-09-12T02:09:15.134Z,14.90
2018-09-12T02:11:44.262Z,14.80
2018-09-12T02:14:13.097Z,14.80
2018-09-12T02:16:41.898Z,14.80
2018-09-12T02:19:10.836Z,14.80
2018-09-12T02:21:39.740Z,14.80
2018-09-12T02:24:08.736Z,14.80
2018-09-12T02:26:37.589Z,14.70
2018-09-12T02:29:06.474Z,14.70
2018-09-12T02:31:35.280Z,14.70
2018-09-12T02:34:07.765Z,14.70
2018-09-12T02:36:36.735Z,14.70
2018-09-12T02:39:08.938Z,14.60
2018-09-12T02:41:38.003Z,14.60
2018-09-12T02:44:07.492Z,14.60
2018-09-12T02:46:36.579Z,14.60
2018-09-12T02:49:05.537Z,14.60
2018-09-12T02:51:34.411Z,14.60
2018-09-12T02:54:03.230Z,14.60
2018-09-12T02:56:32.148Z,14.50
2018-09-12T02:59:01.201Z,14.50
2018-09-12T03:01:30.980Z,14.50
2018-09-12T03:04:16.042Z,14.50
2018-09-12T03:06:44.965Z,14.40
2018-09-12T03:09:13.825Z,14.40
2018-09-12T03:11:42.699Z,14.40
2018-09-12T03:14:11.564Z,14.40
2018-09-12T03:16:40.438Z,14.40
2018-09-12T03:19:09.518Z,14.40
2018-09-12T03:21:38.715Z,14.40
2018-09-12T03:24:07.687Z,14.30
2018-09-12T03:26:36.579Z,14.30
2018-09-12T03:29:05.600Z,14.30
2018-09-12T03:31:34.538Z,14.30
2018-09-12T03:34:03.425Z,14.40
2018-09-12T03:36:32.557Z,14.30
2018-09-12T03:39:01.417Z,14.30
2018-09-12T03:41:30.335Z,14.30
2018-09-12T03:43:59.233Z,14.30
2018-09-12T03:46:28.169Z,14.30
2018-09-12T03:48:56.957Z,14.30
2018-09-12T03:51:27.821Z,14.30
2018-09-12T03:53:56.581Z,14.30
2018-09-12T03:56:25.885Z,14.30
2018-09-12T03:58:55.198Z,14.30
2018-09-12T04:01:24.093Z,14.30
2018-09-12T04:03:53.125Z,14.30
2018-09-12T04:06:22.443Z,14.30
2018-09-12T04:08:51.464Z,14.20
2018-09-12T04:11:20.313Z,14.20
2018-09-12T04:13:50.123Z,14.20
2018-09-12T04:16:18.994Z,14.20
2018-09-12T04:18:48.090Z,14.20
2018-09-12T04:21:17.567Z,14.20
2018-09-12T04:23:46.681Z,14.10
2018-09-12T04:26:16.022Z,14.10
2018-09-12T04:28:45.199Z,14.10
2018-09-12T04:31:14.067Z,14.10
2018-09-12T04:33:43.158Z,14.10
2018-09-12T04:36:11.936Z,14.10
2018-09-12T04:38:40.849Z,14.00
2018-09-12T04:41:09.826Z,14.00
2018-09-12T04:43:39.035Z,14.00
2018-09-12T04:46:07.580Z,14.00
2018-09-12T04:48:36.416Z,14.00
2018-09-12T04:51:05.384Z,14.00
2018-09-12T04:53:34.452Z,14.00
2018-09-12T04:56:03.262Z,13.90
2018-09-12T04:58:32.262Z,13.90
2018-09-12T05:01:01.213Z,13.90
2018-09-12T05:03:29.995Z,13.90
2018-09-12T05:06:09.312Z,14.00
2018-09-12T05:08:38.273Z,14.00
2018-09-12T05:11:07.149Z,14.10
2018-09-12T05:13:38.059Z,14.10
2018-09-12T05:16:07.043Z,14.20
2018-09-12T05:18:36.175Z,14.40
2018-09-12T05:21:05.100Z,14.50
2018-09-12T05:23:34.165Z,14.60
2018-09-12T05:26:03.140Z,14.70
2018-09-12T05:28:31.976Z,14.80
2018-09-12T05:31:00.880Z,14.90
2018-09-12T05:33:29.777Z,15.10
2018-09-12T05:35:58.883Z,15.20
2018-09-12T05:38:27.838Z,15.30
2018-09-12T05:40:56.727Z,15.50
2018-09-12T05:43:25.519Z,15.60
2018-09-12T05:45:54.870Z,15.70
2018-09-12T05:48:23.640Z,15.80
2018-09-12T05:50:52.505Z,16.00
2018-09-12T05:53:21.320Z,16.10
2018-09-12T05:55:50.329Z,16.20
2018-09-12T05:58:19.197Z,16.40
2018-09-12T06:00:48.017Z,16.50
2018-09-12T06:03:16.935Z,16.60
2018-09-12T06:05:45.795Z,16.80
2018-09-12T06:08:14.594Z,17.10
2018-09-12T06:10:43.499Z,17.30
2018-09-12T06:13:12.481Z,17.60
2018-09-12T06:15:41.418Z,17.80
2018-09-12T06:18:10.254Z,18.10
2018-09-12T06:20:39.026Z,18.40
2018-09-12T06:23:07.880Z,18.60
2018-09-12T06:25:36.880Z,18.80
2018-09-12T06:28:06.135Z,19.00
2018-09-12T06:30:35.065Z,19.10
2018-09-12T06:33:03.988Z,19.30
2018-09-12T06:35:32.754Z,19.50
2018-09-12T06:38:01.558Z,19.70
2018-09-12T06:40:30.510Z,19.90
2018-09-12T06:42:59.387Z,20.10
2018-09-12T06:45:28.309Z,20.30
2018-09-12T06:47:57.255Z,20.50
2018-09-12T06:50:26.152Z,20.60
2018-09-12T06:52:55.044Z,20.80
2018-09-12T06:55:23.908Z,21.00
2018-09-12T06:57:52.770Z,21.10
2018-09-12T07:00:21.616Z,21.20
2018-09-12T07:02:50.807Z,21.40
2018-09-12T07:05:19.735Z,21.50
2018-09-12T07:07:48.782Z,21.40
2018-09-12T07:10:17.608Z,21.40
2018-09-12T07:12:46.686Z,21.40
2018-09-12T07:15:15.624Z,21.60
2018-09-12T07:17:44.495Z,21.70
2018-09-12T07:20:13.343Z,21.90
2018-09-12T07:22:42.151Z,22.10
2018-09-12T07:25:10.987Z,22.10
2018-09-12T07:27:39.963Z,22.40
2018-09-12T07:30:08.974Z,22.40
2018-09-12T07:32:37.930Z,22.60
2018-09-12T07:35:06.812Z,22.80
2018-09-12T07:37:35.598Z,22.90
2018-09-12T07:40:04.655Z,23.10
2018-09-12T07:42:33.501Z,23.30
2018-09-12T07:45:02.418Z,23.40
2018-09-12T07:47:31.341Z,23.50
2018-09-12T07:50:00.271Z,23.60
2018-09-12T07:52:29.267Z,23.80
2018-09-12T07:54:58.412Z,23.80
2018-09-12T07:57:27.303Z,23.90
2018-09-12T07:59:56.172Z,24.10
2018-09-12T08:02:25.001Z,24.20
2018-09-12T08:04:54.109Z,24.30
2018-09-12T08:07:23.027Z,24.40
2018-09-12T08:09:51.868Z,24.50
2018-09-12T08:12:20.763Z,24.50
2018-09-12T08:14:49.512Z,24.60
2018-09-12T08:17:18.484Z,24.80
2018-09-12T08:19:47.389Z,24.90
2018-09-12T08:22:16.374Z,25.00
2018-09-12T08:24:45.310Z,25.00
2018-09-12T08:27:14.209Z,25.10
2018-09-12T08:29:43.060Z,25.30
2018-09-12T08:32:11.877Z,25.50
2018-09-12T08:34:40.718Z,25.40
2018-09-12T08:37:09.609Z,25.60
2018-09-12T08:39:38.487Z,25.70
2018-09-12T08:42:07.388Z,25.60
2018-09-12T08:44:36.242Z,25.80
2018-09-12T08:47:05.198Z,25.80
2018-09-12T08:49:34.065Z,25.90
2018-09-12T08:52:03.006Z,25.90
2018-09-12T08:54:31.817Z,25.90
2018-09-12T08:57:00.785Z,26.00
2018-09-12T08:59:29.860Z,25.80
2018-09-12T09:01:58.652Z,26.00
2018-09-12T09:04:27.522Z,26.10
2018-09-12T09:06:56.315Z,26.00
2018-09-12T09:09:25.401Z,26.00
2018-09-12T09:11:54.186Z,26.20
2018-09-12T09:14:23.334Z,26.20
2018-09-12T09:16:52.334Z,26.40
2018-09-12T09:19:21.176Z,26.60
2018-09-12T09:21:49.988Z,26.80
2018-09-12T09:24:18.751Z,27.10
2018-09-12T09:26:47.744Z,27.20
2018-09-12T09:29:16.802Z,27.30
2018-09-12T09:31:45.627Z,27.30
2018-09-12T09:34:14.505Z,27.50
2018-09-12T09:36:43.574Z,27.60
2018-09-12T09:39:12.952Z,27.50
2018-09-12T09:41:42.277Z,27.70
2018-09-12T09:44:11.096Z,27.80
2018-09-12T09:46:39.926Z,27.80
2018-09-12T09:49:08.776Z,27.80
2018-09-12T09:51:37.656Z,28.00
2018-09-12T09:54:06.422Z,28.10
2018-09-12T09:56:35.247Z,28.30
2018-09-12T09:59:04.108Z,28.50
2018-09-12T10:01:38.433Z,28.70
2018-09-12T10:04:11.288Z,28.90
2018-09-12T10:06:45.905Z,28.90
2018-09-12T10:09:20.272Z,29.10
2018-09-12T10:11:49.395Z,29.20
2018-09-12T10:14:18.198Z,29.30
2018-09-12T10:16:46.870Z,29.40
2018-09-12T10:19:15.674Z,29.50
2018-09-12T10:21:44.544Z,29.50
2018-09-12T10:24:13.348Z,29.40
2018-09-12T10:26:42.102Z,29.30
2018-09-12T10:29:10.932Z,29.20
2018-09-12T10:31:39.864Z,29.10
2018-09-12T10:34:08.758Z,29.00
2018-09-12T10:36:38.008Z,28.90
2018-09-12T10:39:10.330Z,29.00
2018-09-12T10:41:39.268Z,29.30
2018-09-12T10:44:08.102Z,29.40
2018-09-12T10:46:36.948Z,29.60
2018-09-12T10:49:06.592Z,29.80
2018-09-12T10:51:35.420Z,29.80
2018-09-12T10:54:04.377Z,29.90
2018-09-12T10:56:33.325Z,29.80
2018-09-12T10:59:02.219Z,30.00
2018-09-12T11:01:31.106Z,30.20
2018-09-12T11:03:59.845Z,30.10
2018-09-12T11:06:28.662Z,30.20
2018-09-12T11:08:57.928Z,30.40
2018-09-12T11:11:26.651Z,30.50
2018-09-12T11:13:55.565Z,30.60
2018-09-12T11:16:24.290Z,30.70
2018-09-12T11:18:53.088Z,30.50
2018-09-12T11:21:22.002Z,30.30
2018-09-12T11:23:50.928Z,30.30
2018-09-12T11:26:19.805Z,30.30
2018-09-12T11:28:48.641Z,30.40
2018-09-12T11:31:17.481Z,30.40
2018-09-12T11:33:46.482Z,30.50
2018-09-12T11:36:15.445Z,30.70
2018-09-12T11:38:44.357Z,30.70
2018-09-12T11:41:13.176Z,30.70
2018-09-12T11:43:42.146Z,30.70
2018-09-12T11:46:10.997Z,30.70
2018-09-12T11:48:39.923Z,30.80
2018-09-12T11:51:08.731Z,30.90
2018-09-12T11:53:37.737Z,31.00
2018-09-12T11:56:06.539Z,31.00
2018-09-12T11:58:35.463Z,30.90
2018-09-12T12:01:04.581Z,30.80
2018-09-12T12:03:33.853Z,30.90
2018-09-12T12:06:02.775Z,31.00
2018-09-12T12:08:31.531Z,31.10
2018-09-12T12:11:00.392Z,31.00
2018-09-12T12:13:29.215Z,31.00
2018-09-12T12:15:59.998Z,31.00
2018-09-12T12:18:28.747Z,31.00
2018-09-12T12:20:57.985Z,31.10
2018-09-12T12:23:26.858Z,31.40
2018-09-12T12:25:55.643Z,31.90
2018-09-12T12:28:24.537Z,32.90
2018-09-12T12:30:53.385Z,34.60
2018-09-12T12:33:22.651Z,35.90
2018-09-12T12:35:51.489Z,36.60
2018-09-12T12:38:20.378Z,36.70
2018-09-12T12:40:49.186Z,36.90
2018-09-12T12:43:18.157Z,37.00
2018-09-12T12:45:47.073Z,36.80
2018-09-12T12:48:15.917Z,37.60
2018-09-12T12:50:48.914Z,37.80
2018-09-12T12:53:17.865Z,38.30
2018-09-12T12:55:46.744Z,38.80
2018-09-12T12:58:15.639Z,39.10
2018-09-12T13:00:44.350Z,39.00
2018-09-12T13:03:13.279Z,38.90
2018-09-12T13:05:42.198Z,38.80
2018-09-12T13:08:11.141Z,38.90
2018-09-12T13:10:39.991Z,39.20
2018-09-12T13:13:08.871Z,39.00
2018-09-12T13:15:37.815Z,38.90
2018-09-12T13:18:06.540Z,39.40
2018-09-12T13:20:35.509Z,40.00
2018-09-12T13:23:14.560Z,39.90
2018-09-12T13:25:43.352Z,39.50
2018-09-12T13:28:12.439Z,40.00
2018-09-12T13:30:41.587Z,40.30
2018-09-12T13:33:10.275Z,39.50
2018-09-12T13:35:39.109Z,38.50
2018-09-12T13:38:07.995Z,38.20
2018-09-12T13:40:36.745Z,37.90
2018-09-12T13:43:05.715Z,38.30
2018-09-12T13:45:34.642Z,38.00
2018-09-12T13:48:03.529Z,37.40
2018-09-12T13:50:32.309Z,37.20
2018-09-12T13:53:01.231Z,37.30
2018-09-12T13:55:30.464Z,37.10
2018-09-12T13:57:59.420Z,37.10
2018-09-12T14:00:31.948Z,36.40
2018-09-12T14:03:02.939Z,36.40
2018-09-12T14:05:32.486Z,35.90
2018-09-12T14:08:01.680Z,35.50
2018-09-12T14:10:30.871Z,35.30
2018-09-12T14:12:59.687Z,35.10
2018-09-12T14:15:28.611Z,35.10
2018-09-12T14:17:58.573Z,35.10
2018-09-12T14:20:27.529Z,35.00
2018-09-12T14:22:56.625Z,34.80
2018-09-12T14:25:25.499Z,34.60
2018-09-12T14:27:54.283Z,34.60
2018-09-12T14:30:23.083Z,34.70
2018-09-12T14:32:51.971Z,34.50
2018-09-12T14:35:20.751Z,34.50
2018-09-12T14:37:49.559Z,34.20
2018-09-12T14:40:18.416Z,34.60
2018-09-12T14:42:47.155Z,35.10
2018-09-12T14:45:15.974Z,35.40
2018-09-12T14:47:44.753Z,35.70
2018-09-12T14:50:14.123Z,35.70
2018-09-12T14:52:43.337Z,35.70
2018-09-12T14:55:12.742Z,35.70
2018-09-12T14:57:41.757Z,35.70
2018-09-12T15:00:10.697Z,35.70
2018-09-12T15:02:39.509Z,35.50
2018-09-12T15:05:08.699Z,35.00
2018-09-12T15:07:37.465Z,35.00
2018-09-12T15:10:06.600Z,35.10
2018-09-12T15:12:35.523Z,35.10
2018-09-12T15:15:04.591Z,35.00
2018-09-12T15:17:33.446Z,35.00
2018-09-12T15:20:02.238Z,35.30
2018-09-12T15:22:31.045Z,35.70
2018-09-12T15:25:00.114Z,36.10
2018-09-12T15:27:29.274Z,35.40
2018-09-12T15:29:58.085Z,34.60
2018-09-12T15:32:27.201Z,34.50
2018-09-12T15:34:56.075Z,34.90
2018-09-12T15:37:25.325Z,34.90
2018-09-12T15:39:54.193Z,34.60
2018-09-12T15:42:23.191Z,34.60
2018-09-12T15:44:52.509Z,34.80
2018-09-12T15:47:21.440Z,34.90
2018-09-12T15:49:51.200Z,34.70
2018-09-12T15:52:20.505Z,34.40
2018-09-12T15:54:49.481Z,34.00
2018-09-12T15:57:18.280Z,33.90
2018-09-12T15:59:47.033Z,33.70
2018-09-12T16:02:15.969Z,33.70
2018-09-12T16:04:45.867Z,33.30
2018-09-12T16:07:14.790Z,33.20
2018-09-12T16:09:43.701Z,33.00
2018-09-12T16:12:13.840Z,32.50
2018-09-12T16:14:42.769Z,32.30
2018-09-12T16:17:11.809Z,32.10
2018-09-12T16:19:40.699Z,32.20
2018-09-12T16:22:09.601Z,32.20
2018-09-12T16:24:38.711Z,32.10
2018-09-12T16:27:07.489Z,31.90
2018-09-12T16:29:36.683Z,31.80
2018-09-12T16:32:05.637Z,31.60
2018-09-12T16:34:34.448Z,31.40
2018-09-12T16:37:03.395Z,31.10
2018-09-12T16:39:32.477Z,31.00
2018-09-12T16:42:01.650Z,30.90
2018-09-12T16:44:30.555Z,30.70
2018-09-12T16:46:59.378Z,30.60
2018-09-12T16:49:28.301Z,30.40
2018-09-12T16:51:57.179Z,30.20
2018-09-12T16:54:31.605Z,30.10
2018-09-12T16:57:00.558Z,30.00
2018-09-12T16:59:29.792Z,29.80
2018-09-12T17:01:58.892Z,29.60
2018-09-12T17:04:27.725Z,29.50
2018-09-12T17:06:56.577Z,29.30
2018-09-12T17:09:25.373Z,29.10
2018-09-12T17:11:54.125Z,28.90
2018-09-12T17:14:22.983Z,28.70
2018-09-12T17:16:51.937Z,28.50
2018-09-12T17:19:21.608Z,28.30
2018-09-12T17:21:50.364Z,28.10
2018-09-12T17:24:19.264Z,28.00
2018-09-12T17:26:48.129Z,27.80
2018-09-12T17:29:17.025Z,27.70
2018-09-12T17:31:45.915Z,27.50
2018-09-12T17:34:14.890Z,27.40
2018-09-12T17:36:43.838Z,27.30
2018-09-12T17:39:13.549Z,27.10
2018-09-12T17:41:42.386Z,27.00
2018-09-12T17:44:11.302Z,26.80
2018-09-12T17:46:40.117Z,26.60
2018-09-12T17:49:09.110Z,26.30
2018-09-12T17:51:38.493Z,26.10
2018-09-12T17:54:07.472Z,25.90
2018-09-12T17:56:36.508Z,25.70
2018-09-12T17:59:05.450Z,25.60
2018-09-12T18:01:34.362Z,25.40
2018-09-12T18:04:08.776Z,25.30
2018-09-12T18:06:37.609Z,25.10
2018-09-12T18:09:08.564Z,25.00
2018-09-12T18:11:37.444Z,24.80
2018-09-12T18:14:06.478Z,24.70
2018-09-12T18:16:35.327Z,24.50
2018-09-12T18:19:04.376Z,24.40
2018-09-12T18:21:33.413Z,24.30
2018-09-12T18:24:03.406Z,24.20
2018-09-12T18:26:32.400Z,24.00
2018-09-12T18:29:01.819Z,24.00
2018-09-12T18:31:31.171Z,23.80
2018-09-12T18:34:00.657Z,23.70
2018-09-12T18:36:29.561Z,23.70
2018-09-12T18:38:58.491Z,23.60
2018-09-12T18:41:27.323Z,23.50
2018-09-12T18:44:06.564Z,23.40
2018-09-12T18:46:35.353Z,23.40
2018-09-12T18:49:04.244Z,23.40
2018-09-12T18:51:33.172Z,23.30
2018-09-12T18:54:04.174Z,23.20
2018-09-12T18:56:32.877Z,23.20
2018-09-12T18:59:02.132Z,23.10
2018-09-12T19:01:31.030Z,23.00
2018-09-12T19:04:01.044Z,22.90
2018-09-12T19:06:30.206Z,22.80
2018-09-12T19:08:59.200Z,22.80
2018-09-12T19:11:29.040Z,22.70
2018-09-12T19:13:57.961Z,22.60
2018-09-12T19:16:27.082Z,22.50
2018-09-12T19:18:55.957Z,22.50
2018-09-12T19:21:25.044Z,22.40
2018-09-12T19:23:53.998Z,22.40
2018-09-12T19:26:23.392Z,22.30
2018-09-12T19:28:52.273Z,22.20
2018-09-12T19:31:21.148Z,22.20
2018-09-12T19:33:50.132Z,22.10
2018-09-12T19:36:19.948Z,22.00
2018-09-12T19:38:48.740Z,22.00
2018-09-12T19:41:17.558Z,21.90
2018-09-12T19:43:47.222Z,21.80
2018-09-12T19:46:16.127Z,21.80
2018-09-12T19:48:45.156Z,21.70
2018-09-12T19:51:21.365Z,21.70
2018-09-12T19:53:50.518Z,21.60
2018-09-12T19:56:19.356Z,21.60
2018-09-12T19:58:48.260Z,21.60
2018-09-12T20:01:17.394Z,21.50
2018-09-12T20:03:46.326Z,21.50
2018-09-12T20:06:15.156Z,21.40
2018-09-12T20:08:44.317Z,21.40
2018-09-12T20:11:13.068Z,21.30
2018-09-12T20:13:41.908Z,21.20
2018-09-12T20:16:11.077Z,21.20
2018-09-12T20:18:39.902Z,21.10
2018-09-12T20:21:08.902Z,21.10
2018-09-12T20:23:43.558Z,21.10
2018-09-12T20:26:12.392Z,21.00
2018-09-12T20:28:43.149Z,20.90
2018-09-12T20:31:12.019Z,20.90
2018-09-12T20:33:41.019Z,20.90
2018-09-12T20:36:09.796Z,20.80
2018-09-12T20:38:38.539Z,20.70
2018-09-12T20:41:07.369Z,20.70
2018-09-12T20:43:36.322Z,20.70
2018-09-12T20:46:05.290Z,20.60
2018-09-12T20:48:34.184Z,20.50
2018-09-12T20:51:03.110Z,20.50
2018-09-12T20:53:32.067Z,20.40
2018-09-12T20:56:00.876Z,20.40
2018-09-12T20:58:30.283Z,20.40
2018-09-12T21:00:59.394Z,20.30
2018-09-12T21:03:28.262Z,20.30
2018-09-12T21:05:57.167Z,20.30
2018-09-12T21:08:26.071Z,20.20
2018-09-12T21:10:54.988Z,20.20
2018-09-12T21:13:23.895Z,20.20
2018-09-12T21:15:52.911Z,20.20
2018-09-12T21:18:21.672Z,20.10
2018-09-12T21:20:50.732Z,20.10
2018-09-12T21:23:20.479Z,20.10
2018-09-12T21:25:49.392Z,20.10
2018-09-12T21:28:18.430Z,20.20
2018-09-12T21:30:47.650Z,20.10
2018-09-12T21:33:16.626Z,20.10
2018-09-12T21:35:45.424Z,20.10
2018-09-12T21:38:14.319Z,20.20
2018-09-12T21:40:43.104Z,20.20
2018-09-12T21:43:11.896Z,20.20
2018-09-12T21:45:40.698Z,20.30
2018-09-12T21:48:09.444Z,20.30
2018-09-12T21:50:38.412Z,20.30
2018-09-12T21:53:08.051Z,20.30
2018-09-12T21:55:36.962Z,20.30
2018-09-12T21:58:06.197Z,20.40
2018-09-12T22:00:35.092Z,20.30
2018-09-12T22:03:04.729Z,20.30
2018-09-12T22:05:33.563Z,20.30
2018-09-12T22:08:02.523Z,20.20
2018-09-12T22:10:31.399Z,20.20
2018-09-12T22:13:00.305Z,20.10
2018-09-12T22:15:29.101Z,20.10
2018-09-12T22:17:58.031Z,20.10
2018-09-12T22:20:27.651Z,20.00
2018-09-12T22:22:57.167Z,20.00
2018-09-12T22:25:26.092Z,20.00
2018-09-12T22:27:54.914Z,20.00
2018-09-12T22:30:23.889Z,20.00
2018-09-12T22:32:53.346Z,20.00
2018-09-12T22:35:22.207Z,19.90
2018-09-12T22:37:51.084Z,19.90
2018-09-12T22:40:21.644Z,19.90
2018-09-12T22:42:50.503Z,19.80
2018-09-12T22:45:25.553Z,19.80
2018-09-12T22:47:54.359Z,19.70
2018-09-12T22:50:23.152Z,19.70
2018-09-12T22:52:51.979Z,19.60
2018-09-12T22:55:20.872Z,19.60
2018-09-12T22:57:49.744Z,19.50
2018-09-12T23:00:18.479Z,19.50
2018-09-12T23:02:47.292Z,19.50
2018-09-12T23:05:16.011Z,19.50
2018-09-12T23:07:44.782Z,19.50
2018-09-12T23:10:13.615Z,19.50
2018-09-12T23:12:42.401Z,19.50
2018-09-12T23:15:11.543Z,19.50
2018-09-12T23:17:40.365Z,19.50
2018-09-12T23:20:09.454Z,19.50
2018-09-12T23:22:38.266Z,19.50
2018-09-12T23:25:07.054Z,19.50
2018-09-12T23:27:35.927Z,19.50
2018-09-12T23:30:05.112Z,19.60
2018-09-12T23:32:33.963Z,19.60
2018-09-12T23:35:03.015Z,19.60
2018-09-12T23:37:31.823Z,19.60
2018-09-12T23:40:00.763Z,19.60
2018-09-12T23:42:29.625Z,19.70
2018-09-12T23:44:58.785Z,19.70
2018-09-12T23:47:27.625Z,19.70
2018-09-12T23:50:07.345Z,19.70
2018-09-12T23:52:36.245Z,19.80
2018-09-12T23:55:05.363Z,19.70
2018-09-12T23:57:34.252Z,19.70
